Time;durP1;ratioP1;P1;durP2;ratioP2;P2;SDS_P1;SDS_P2;PMS_P1;PMS_P2;Temp;Humidity;BMP_temperature;BMP_pressure;BME280_temperature;BME280_humidity;BME280_pressure;Samples;Min_cycle;Max_cycle;Signal;HPM_P1;HPM_P2
2024/02/21 00:02:15;;;;;;;18.63;4.15;;;;;;;9.22;100.00;101205.75;5094140;28;20057;-74
2024/02/21 00:04:45;;;;;;;13.98;3.47;;;;;;;9.22;100.00;101190.09;5093032;28;20032;-75
2024/02/21 00:07:15;;;;;;;18.17;4.10;;;;;;;9.19;100.00;101192.78;5093426;28;20049;-74
2024/02/21 00:09:46;;;;;;;17.83;3.50;;;;;;;9.23;100.00;101187.47;5092593;28;20355;-75
2024/02/21 00:12:16;;;;;;;13.40;3.67;;;;;;;9.22;100.00;101190.09;5092306;28;20520;-74
2024/02/21 00:14:46;;;;;;;16.58;4.10;;;;;;;9.21;100.00;101178.81;5093224;28;20091;-74
2024/02/21 00:17:17;;;;;;;18.48;3.72;;;;;;;9.15;100.00;101185.91;5092358;28;20122;-74
2024/02/21 00:19:47;;;;;;;16.75;4.22;;;;;;;9.14;100.00;101182.44;5131016;28;20024;-74
2024/02/21 00:22:17;;;;;;;13.63;3.58;;;;;;;9.22;100.00;101174.44;5092595;28;20046;-74
2024/02/21 00:24:47;;;;;;;17.10;3.88;;;;;;;9.29;100.00;101186.50;5136541;28;20747;-75
2024/02/21 00:27:18;;;;;;;12.40;3.53;;;;;;;9.38;100.00;101186.28;5093064;28;20075;-74
2024/02/21 00:29:48;;;;;;;21.65;4.28;;;;;;;9.36;100.00;101178.50;5125384;28;20047;-74
2024/02/21 00:32:18;;;;;;;20.70;3.55;;;;;;;9.33;100.00;101180.31;5093424;28;20130;-74
2024/02/21 00:34:49;;;;;;;11.35;4.07;;;;;;;9.26;100.00;101178.72;5148132;28;20564;-75
2024/02/21 00:37:19;;;;;;;15.00;3.70;;;;;;;9.21;100.00;101172.75;5179510;28;20046;-74
2024/02/21 00:39:49;;;;;;;11.82;3.75;;;;;;;9.24;100.00;101170.06;5091347;28;20127;-75
2024/02/21 00:42:21;;;;;;;15.27;3.53;;;;;;;9.26;100.00;101171.75;5091641;28;20402;-74
2024/02/21 00:44:51;;;;;;;18.70;3.97;;;;;;;9.19;100.00;101161.47;5092490;28;20027;-75
2024/02/21 00:47:21;;;;;;;14.30;3.70;;;;;;;9.25;100.00;101163.94;5181489;28;20097;-75
2024/02/21 00:49:52;;;;;;;20.48;4.10;;;;;;;9.23;100.00;101155.31;5098102;28;20481;-74
2024/02/21 00:52:22;;;;;;;14.80;4.03;;;;;;;9.10;100.00;101155.59;5100195;28;20149;-74
2024/02/21 00:54:52;;;;;;;21.83;4.72;;;;;;;9.25;100.00;101166.56;5098981;28;20035;-74
2024/02/21 00:57:23;;;;;;;17.10;4.15;;;;;;;9.27;100.00;101157.81;5098914;28;20101;-74
2024/02/21 00:59:53;;;;;;;15.48;4.00;;;;;;;9.24;100.00;101142.25;5146509;28;20126;-75
2024/02/21 01:02:24;;;;;;;19.13;4.30;;;;;;;9.22;100.00;101143.16;5098500;28;20045;-74
2024/02/21 01:04:54;;;;;;;17.38;4.40;;;;;;;9.29;100.00;101142.16;5097838;28;20035;-74
2024/02/21 01:07:24;;;;;;;13.38;4.18;;;;;;;9.33;100.00;101138.59;5098781;28;20441;-74
2024/02/21 01:09:55;;;;;;;17.58;4.85;;;;;;;9.44;100.00;101128.75;5133232;28;20040;-74
2024/02/21 01:12:25;;;;;;;15.50;4.50;;;;;;;9.50;100.00;101131.25;5090747;28;20035;-74
2024/02/21 01:14:56;;;;;;;12.95;4.40;;;;;;;9.43;100.00;101134.88;5099151;28;20038;-74
2024/02/21 01:17:26;;;;;;;17.70;5.15;;;;;;;9.32;100.00;101127.28;5098427;28;21041;-74
2024/02/21 01:19:56;;;;;;;18.98;5.50;;;;;;;9.31;100.00;101122.94;5135160;28;20508;-74
2024/02/21 01:22:26;;;;;;;18.95;6.32;;;;;;;9.41;100.00;101113.19;5099144;28;20044;-74
2024/02/21 01:24:57;;;;;;;12.38;5.47;;;;;;;9.34;100.00;101124.66;5133318;28;20493;-74
2024/02/21 01:27:27;;;;;;;18.10;5.82;;;;;;;9.41;100.00;101121.88;5134132;28;20373;-74
2024/02/21 01:29:57;;;;;;;17.92;5.18;;;;;;;9.42;100.00;101117.50;5098974;28;20404;-75
2024/02/21 01:32:28;;;;;;;16.05;5.50;;;;;;;9.48;100.00;101110.41;5130572;28;20022;-74
2024/02/21 01:34:58;;;;;;;20.85;5.78;;;;;;;9.41;100.00;101111.44;5099495;28;20585;-75
2024/02/21 01:37:28;;;;;;;18.42;5.53;;;;;;;9.45;100.00;101107.03;5098826;28;20413;-74
2024/02/21 01:39:58;;;;;;;18.25;6.00;;;;;;;9.51;100.00;101094.66;5098249;28;20169;-74
2024/02/21 01:42:29;;;;;;;15.07;5.95;;;;;;;9.58;100.00;101096.25;5136341;28;20035;-74
2024/02/21 01:44:59;;;;;;;20.83;6.95;;;;;;;9.57;100.00;101104.09;5136329;28;20032;-74
2024/02/21 01:47:29;;;;;;;20.30;6.82;;;;;;;9.57;100.00;101091.06;5098384;28;20070;-74
2024/02/21 01:50:01;;;;;;;18.27;6.85;;;;;;;9.49;100.00;101090.41;5132863;28;20028;-74
2024/02/21 01:52:35;;;;;;;23.75;6.88;;;;;;;9.50;100.00;101084.28;5136063;28;20275;-74
2024/02/21 01:55:06;;;;;;;17.98;7.20;;;;;;;9.52;100.00;101098.16;5097383;28;20031;-73
2024/02/21 01:57:37;;;;;;;19.75;7.25;;;;;;;9.52;100.00;101095.53;5097489;28;20028;-74
2024/02/21 02:00:10;;;;;;;22.75;7.30;;;;;;;9.64;100.00;101090.03;5093235;28;20039;-74
2024/02/21 02:02:40;;;;;;;19.20;7.57;;;;;;;9.58;100.00;101080.59;5140086;28;20035;-74
2024/02/21 02:05:11;;;;;;;22.50;7.30;;;;;;;9.54;100.00;101084.19;5125121;28;20041;-74
2024/02/21 02:07:41;;;;;;;18.48;7.57;;;;;;;9.64;100.00;101087.44;5132890;28;20036;-74
2024/02/21 02:10:12;;;;;;;22.67;7.80;;;;;;;9.65;100.00;101082.16;5094990;28;20078;-74
2024/02/21 02:12:42;;;;;;;23.48;7.88;;;;;;;9.62;100.00;101066.59;5095192;28;20032;-73
2024/02/21 02:15:13;;;;;;;22.67;8.10;;;;;;;9.56;100.00;101063.25;5094334;28;20032;-74
2024/02/21 02:17:43;;;;;;;22.20;7.85;;;;;;;9.56;100.00;101063.25;5135232;28;20035;-74
2024/02/21 02:20:13;;;;;;;22.38;7.40;;;;;;;9.57;100.00;101062.34;5094669;28;20036;-74
2024/02/21 02:22:46;;;;;;;22.92;8.43;;;;;;;9.60;100.00;101057.06;5095187;28;20093;-74
2024/02/21 02:25:17;;;;;;;18.65;7.45;;;;;;;9.60;100.00;101057.94;5131021;28;20045;-74
2024/02/21 02:27:47;;;;;;;22.92;7.82;;;;;;;9.56;100.00;101063.25;5094924;28;20028;-76
2024/02/21 02:30:17;;;;;;;22.15;7.70;;;;;;;9.61;100.00;101053.56;5094725;28;20055;-74
2024/02/21 02:32:48;;;;;;;20.27;7.35;;;;;;;9.66;100.00;101049.09;5094816;28;20381;-74
2024/02/21 02:35:18;;;;;;;24.45;8.40;;;;;;;9.62;100.00;101050.09;5094652;28;20035;-74
2024/02/21 02:37:49;;;;;;;21.90;7.35;;;;;;;9.62;100.00;101037.88;5093810;28;20050;-75
2024/02/21 02:40:20;;;;;;;18.25;7.30;;;;;;;9.65;100.00;101026.53;5095276;28;20035;-75
2024/02/21 02:42:51;;;;;;;18.10;6.97;;;;;;;9.69;100.00;101025.53;5094163;28;20028;-75
2024/02/21 02:45:23;;;;;;;20.88;7.80;;;;;;;9.62;100.00;101029.22;5095072;28;20043;-74
2024/02/21 02:47:59;;;;;;;18.95;7.13;;;;;;;9.55;100.00;101023.28;5093573;28;20547;-75
2024/02/21 02:50:30;;;;;;;21.30;7.32;;;;;;;9.62;100.00;101022.22;5094918;28;20529;-74
2024/02/21 02:53:00;;;;;;;18.45;7.60;;;;;;;9.52;100.00;101014.66;5094362;28;20343;-75
2024/02/21 02:55:30;;;;;;;18.50;7.88;;;;;;;9.56;100.00;101013.69;5127460;28;20489;-75
2024/02/21 02:58:01;;;;;;;18.58;7.95;;;;;;;9.52;100.00;100997.25;5124776;28;20070;-74
2024/02/21 03:00:31;;;;;;;20.08;7.43;;;;;;;9.60;100.00;100997.91;5094539;28;20118;-74
2024/02/21 03:03:05;;;;;;;16.88;7.70;;;;;;;9.64;100.00;100986.50;5118243;28;20031;-75
2024/02/21 03:05:35;;;;;;;15.10;7.32;;;;;;;9.62;100.00;100979.63;5125150;28;20476;-74
2024/02/21 03:08:07;;;;;;;18.45;7.80;;;;;;;9.59;100.00;100982.28;5092941;28;20047;-74
2024/02/21 03:10:37;;;;;;;16.45;7.43;;;;;;;9.64;100.00;100981.28;5094873;28;20032;-74
2024/02/21 03:13:07;;;;;;;15.18;7.40;;;;;;;9.66;100.00;100971.66;5127538;28;20106;-74
2024/02/21 03:15:37;;;;;;;24.45;7.70;;;;;;;9.66;100.00;100969.06;5133847;28;20492;-74
2024/02/21 03:18:08;;;;;;;14.73;7.28;;;;;;;9.66;100.00;100963.84;5092808;28;20035;-74
2024/02/21 03:20:38;;;;;;;15.95;6.78;;;;;;;9.66;100.00;100957.78;5093730;28;20038;-74
2024/02/21 03:23:08;;;;;;;20.45;7.22;;;;;;;9.67;100.00;100954.25;5093351;28;20024;-74
2024/02/21 03:25:39;;;;;;;19.55;7.55;;;;;;;9.64;100.00;100957.78;5094563;28;20040;-74
2024/02/21 03:28:09;;;;;;;20.27;7.93;;;;;;;9.64;100.00;100949.13;5133237;28;20520;-74
2024/02/21 03:30:39;;;;;;;17.92;7.53;;;;;;;9.64;100.00;100949.97;5082687;28;20181;-74
2024/02/21 03:33:10;;;;;;;21.75;7.90;;;;;;;9.75;100.00;100947.94;5092806;28;20783;-74
2024/02/21 03:35:40;;;;;;;17.67;7.65;;;;;;;9.71;100.00;100942.84;5144063;28;20031;-74
2024/02/21 03:38:10;;;;;;;21.52;7.78;;;;;;;9.72;100.00;100936.72;5132111;28;20027;-74
2024/02/21 03:40:41;;;;;;;16.25;7.50;;;;;;;9.73;100.00;100934.09;5094596;28;20032;-74
2024/02/21 03:43:11;;;;;;;18.48;7.32;;;;;;;9.74;100.00;100932.31;5127888;28;20032;-74
2024/02/21 03:45:41;;;;;;;18.08;7.55;;;;;;;9.71;100.00;100924.56;5085296;28;20027;-74
2024/02/21 03:48:12;;;;;;;26.10;8.20;;;;;;;9.72;100.00;100931.50;5092384;28;20425;-74
2024/02/21 03:50:43;;;;;;;17.58;7.88;;;;;;;9.67;100.00;100918.56;5094772;28;20114;-74
2024/02/21 03:53:13;;;;;;;20.95;8.18;;;;;;;9.73;99.20;100921.03;5093502;28;20126;-74
2024/02/21 03:55:43;;;;;;;20.90;8.30;;;;;;;9.81;99.80;100915.63;5094703;28;20119;-74
2024/02/21 03:58:14;;;;;;;22.60;7.95;;;;;;;9.75;99.47;100913.16;5082355;28;20030;-74
2024/02/21 04:00:44;;;;;;;18.48;7.35;;;;;;;9.80;99.45;100908.69;5092163;28;20031;-73
2024/02/21 04:05:49;;;;;;;19.75;8.00;;;;;;;9.76;99.04;100886.16;5143060;28;20093;-74
2024/02/21 04:08:19;;;;;;;21.95;9.07;;;;;;;9.83;99.16;100887.72;5141549;28;20104;-75
2024/02/21 04:10:49;;;;;;;22.25;8.27;;;;;;;9.76;98.80;100875.72;5148254;28;20022;-74
2024/02/21 04:13:20;;;;;;;23.13;8.23;;;;;;;9.75;98.43;100864.44;5128770;28;20124;-75
2024/02/21 04:15:50;;;;;;;20.88;8.55;;;;;;;9.71;98.33;100869.78;5159909;28;20026;-74
2024/02/21 04:18:20;;;;;;;20.10;8.77;;;;;;;9.64;97.92;100891.72;5162860;28;20053;-75
2024/02/21 04:20:51;;;;;;;22.65;9.75;;;;;;;9.66;98.29;100889.94;5167084;28;20071;-74
2024/02/21 04:23:22;;;;;;;24.58;8.85;;;;;;;9.71;97.70;100882.81;5160032;28;20034;-75
2024/02/21 04:25:52;;;;;;;22.50;8.70;;;;;;;9.73;97.50;100886.25;5166457;28;20026;-74
2024/02/21 04:28:22;;;;;;;24.20;8.25;;;;;;;9.84;97.25;100897.25;5163218;28;20053;-75
2024/02/21 04:30:52;;;;;;;18.17;8.23;;;;;;;9.82;96.06;100904.28;5167421;28;20030;-75
2024/02/21 04:33:23;;;;;;;20.40;8.80;;;;;;;9.83;95.97;100890.31;5164710;28;20031;-74
2024/02/21 04:35:55;;;;;;;17.05;7.95;;;;;;;9.85;95.18;100888.53;5167631;28;20112;-75
2024/02/21 04:38:25;;;;;;;19.63;8.30;;;;;;;9.85;95.38;100885.91;5157364;28;20168;-75
2024/02/21 04:40:58;;;;;;;18.67;8.48;;;;;;;9.82;95.58;100912.09;5167316;28;20100;-74
2024/02/21 04:43:28;;;;;;;23.98;7.63;;;;;;;9.86;94.34;100913.72;5161633;28;20077;-75
2024/02/21 04:45:58;;;;;;;19.25;7.90;;;;;;;9.93;94.08;100912.66;5166602;28;20068;-73
2024/02/21 04:48:29;;;;;;;19.52;7.85;;;;;;;9.89;94.01;100908.41;5165003;28;20034;-74
2024/02/21 04:50:59;;;;;;;17.25;7.20;;;;;;;9.94;93.54;100909.13;5167077;28;20041;-76
2024/02/21 04:53:29;;;;;;;18.95;6.78;;;;;;;9.92;93.82;100900.50;5174754;28;20080;-75
2024/02/21 04:56:00;;;;;;;17.05;7.43;;;;;;;9.85;93.45;100910.25;5181884;28;20156;-74
2024/02/21 04:58:30;;;;;;;16.85;7.18;;;;;;;9.88;93.16;100899.75;5166743;28;20136;-75
2024/02/21 05:01:00;;;;;;;19.45;7.25;;;;;;;9.87;93.47;100897.16;5168107;28;20034;-74
2024/02/21 05:03:31;;;;;;;20.27;7.53;;;;;;;9.88;93.47;100881.47;5166262;28;20503;-74
2024/02/21 05:06:02;;;;;;;19.42;6.63;;;;;;;9.89;93.02;100877.09;5166442;28;20084;-74
2024/02/21 05:08:32;;;;;;;14.65;6.13;;;;;;;9.89;92.96;100890.16;5165921;28;20031;-74
2024/02/21 05:11:03;;;;;;;15.95;7.20;;;;;;;9.91;92.63;100897.03;5164672;28;20029;-75
2024/02/21 05:13:33;;;;;;;22.35;6.72;;;;;;;9.99;93.16;100899.44;5161898;28;20700;-74
2024/02/21 05:16:04;;;;;;;19.33;6.85;;;;;;;9.97;92.76;100896.03;5179156;28;20163;-74
2024/02/21 05:18:35;;;;;;;18.10;7.05;;;;;;;9.96;93.43;100904.75;5166271;28;20562;-75
2024/02/21 05:21:05;;;;;;;18.98;6.78;;;;;;;9.87;93.33;100905.88;5166305;28;20113;-75
2024/02/21 05:23:35;;;;;;;14.27;6.75;;;;;;;9.80;93.23;100914.75;5164098;28;20582;-74
2024/02/21 05:26:06;;;;;;;17.70;7.30;;;;;;;9.75;93.99;100910.53;5166662;28;20029;-74
2024/02/21 05:28:36;;;;;;;15.32;6.15;;;;;;;9.82;93.04;100906.88;5167245;28;20534;-75
2024/02/21 05:31:07;;;;;;;14.70;6.43;;;;;;;9.76;93.79;100907.91;5184816;28;20039;-74
2024/02/21 05:33:37;;;;;;;15.75;6.43;;;;;;;9.75;93.96;100902.72;5167226;28;20056;-75
2024/02/21 05:36:07;;;;;;;18.73;6.72;;;;;;;9.76;93.81;100897.47;5170148;28;20058;-74
2024/02/21 05:38:38;;;;;;;15.85;6.32;;;;;;;9.82;93.88;100899.88;5171254;28;20038;-75
2024/02/21 05:41:08;;;;;;;19.33;6.13;;;;;;;9.84;92.79;100899.88;5168096;28;20032;-74
2024/02/21 05:43:38;;;;;;;15.23;5.97;;;;;;;9.84;93.53;100889.41;5168222;28;20030;-74
2024/02/21 05:46:09;;;;;;;15.20;6.43;;;;;;;9.87;93.30;100894.56;5164722;28;21024;-74
2024/02/21 05:48:39;;;;;;;14.57;6.93;;;;;;;9.80;94.03;100886.03;5169051;28;20117;-75
2024/02/21 05:51:09;;;;;;;15.88;6.35;;;;;;;9.84;93.44;100884.19;5165005;28;20030;-74
2024/02/21 05:53:40;;;;;;;14.93;6.85;;;;;;;9.84;93.49;100885.03;5166642;28;20036;-75
2024/02/21 05:56:12;;;;;;;16.05;6.88;;;;;;;9.83;93.03;100878.09;5167979;28;20026;-74
2024/02/21 05:58:42;;;;;;;17.83;7.05;;;;;;;9.83;93.22;100885.94;5169507;28;20036;-75
2024/02/21 06:01:12;;;;;;;13.00;6.22;;;;;;;9.86;93.92;100891.06;5169228;28;20026;-75
2024/02/21 06:03:43;;;;;;;14.15;6.32;;;;;;;9.86;93.43;100890.22;5170140;28;20036;-74
2024/02/21 06:06:14;;;;;;;12.38;6.65;;;;;;;9.80;93.86;100883.41;5165834;28;20392;-75
2024/02/21 06:08:44;;;;;;;14.20;6.88;;;;;;;9.82;94.07;100875.56;5168467;28;20019;-75
2024/02/21 06:11:15;;;;;;;18.02;7.50;;;;;;;9.83;94.00;100872.06;5167063;28;20022;-75
2024/02/21 06:13:45;;;;;;;16.35;6.68;;;;;;;9.88;93.75;100878.88;5170908;28;20022;-74
2024/02/21 06:16:15;;;;;;;15.95;6.50;;;;;;;9.92;93.90;100875.25;5167879;28;20069;-74
2024/02/21 06:18:46;;;;;;;15.73;7.30;;;;;;;9.89;94.19;100867.53;5170293;28;20022;-74
2024/02/21 06:21:16;;;;;;;15.13;6.85;;;;;;;9.95;94.30;100869.94;5185499;28;20246;-74
2024/02/21 06:23:47;;;;;;;18.60;7.18;;;;;;;9.87;94.49;100864.09;5187240;28;20052;-74
2024/02/21 06:26:17;;;;;;;18.15;7.07;;;;;;;9.85;94.56;100868.47;5171020;28;20029;-74
2024/02/21 06:28:47;;;;;;;18.15;7.88;;;;;;;9.94;93.59;100870.84;5170175;28;20030;-74
2024/02/21 06:31:18;;;;;;;16.17;7.07;;;;;;;9.92;94.50;100858.72;5167686;28;20025;-74
2024/02/21 06:33:48;;;;;;;17.23;7.32;;;;;;;9.95;94.03;100858.63;5166673;28;20529;-74
2024/02/21 06:36:18;;;;;;;20.17;7.75;;;;;;;10.02;93.44;100857.59;5163750;28;20050;-74
2024/02/21 06:38:49;;;;;;;19.10;7.45;;;;;;;9.96;94.00;100853.38;5167428;28;20021;-74
2024/02/21 06:41:19;;;;;;;18.77;7.32;;;;;;;9.92;94.39;100854.38;5163359;28;20041;-74
2024/02/21 06:43:51;;;;;;;21.80;7.40;;;;;;;9.95;94.53;100850.81;5170136;28;20022;-74
2024/02/21 06:46:28;;;;;;;20.23;7.85;;;;;;;9.86;94.48;100845.84;5160671;28;20085;-74
2024/02/21 06:49:00;;;;;;;17.63;6.60;;;;;;;9.99;94.43;100844.63;5186564;28;20036;-74
2024/02/21 06:51:31;;;;;;;14.68;6.88;;;;;;;9.92;94.57;100841.31;5169209;28;20061;-75
2024/02/21 06:54:02;;;;;;;16.58;6.70;;;;;;;10.01;93.94;100842.81;5164956;28;20200;-74
2024/02/21 06:56:32;;;;;;;14.95;6.63;;;;;;;10.00;93.86;100839.34;5164382;28;20439;-74
2024/02/21 06:59:05;;;;;;;12.98;6.38;;;;;;;9.99;94.14;100832.41;5165966;28;20795;-74
2024/02/21 07:01:36;;;;;;;14.55;7.38;;;;;;;10.03;93.08;100833.22;5167443;28;20236;-74
2024/02/21 07:04:07;;;;;;;15.23;6.68;;;;;;;9.95;93.94;100830.78;5167395;28;20034;-74
2024/02/21 07:06:37;;;;;;;12.45;6.40;;;;;;;10.00;94.16;100828.03;5170290;28;20022;-74
2024/02/21 07:09:07;;;;;;;18.63;7.45;;;;;;;10.03;93.82;100835.81;5173939;28;20030;-74
2024/02/21 07:11:38;;;;;;;14.13;6.70;;;;;;;10.01;93.64;100835.84;5158448;28;20080;-74
2024/02/21 07:14:08;;;;;;;19.50;6.63;;;;;;;10.05;93.75;100837.50;5157192;28;20117;-74
2024/02/21 07:16:38;;;;;;;12.88;5.80;;;;;;;10.10;93.23;100845.16;5156646;28;20069;-74
2024/02/21 07:19:09;;;;;;;16.98;6.47;;;;;;;10.09;93.11;100843.47;5159901;28;20081;-74
2024/02/21 07:21:41;;;;;;;16.33;6.43;;;;;;;10.06;93.34;100846.16;5166956;28;20452;-74
2024/02/21 07:24:12;;;;;;;17.05;7.43;;;;;;;9.92;94.29;100851.75;5159224;28;20389;-74
2024/02/21 07:26:43;;;;;;;19.17;7.13;;;;;;;9.95;94.04;100856.03;5179701;28;20041;-74
2024/02/21 07:29:13;;;;;;;17.00;7.15;;;;;;;9.91;94.05;100854.41;5156565;28;20392;-74
2024/02/21 07:31:44;;;;;;;16.23;6.72;;;;;;;9.97;94.65;100855.09;5167191;28;20029;-74
2024/02/21 07:34:14;;;;;;;15.48;6.85;;;;;;;9.90;94.15;100864.00;5163864;28;20480;-75
2024/02/21 07:36:45;;;;;;;16.30;6.70;;;;;;;9.97;94.49;100864.69;5163793;28;20025;-74
2024/02/21 07:39:16;;;;;;;16.60;6.65;;;;;;;10.01;94.66;100859.34;5165418;28;20070;-74
2024/02/21 07:41:47;;;;;;;19.40;6.28;;;;;;;10.08;94.05;100862.66;5163731;28;20109;-74
2024/02/21 07:44:18;;;;;;;14.88;6.80;;;;;;;10.09;93.74;100859.13;5155824;28;20053;-73
2024/02/21 07:46:48;;;;;;;15.20;6.72;;;;;;;9.96;94.18;100860.38;5160291;28;20026;-73
2024/02/21 07:49:18;;;;;;;19.33;6.60;;;;;;;9.97;93.85;100852.47;5164331;28;20653;-73
2024/02/21 07:51:49;;;;;;;15.18;6.10;;;;;;;9.92;94.67;100856.13;5164641;28;20522;-72
2024/02/21 07:54:19;;;;;;;14.73;5.90;;;;;;;10.01;94.18;100856.75;5158230;28;20112;-73
2024/02/21 07:56:49;;;;;;;18.23;5.78;;;;;;;10.08;93.95;100854.81;5163917;28;20484;-73
2024/02/21 07:59:20;;;;;;;11.95;5.80;;;;;;;10.02;93.74;100853.22;5164834;28;20137;-73
2024/02/21 08:01:50;;;;;;;14.43;5.57;;;;;;;10.09;93.43;100848.69;5163439;28;20291;-73
2024/02/21 08:04:21;;;;;;;19.67;6.18;;;;;;;10.06;94.09;100843.56;5165673;28;20191;-73
2024/02/21 08:06:53;;;;;;;20.08;5.93;;;;;;;10.09;93.20;100849.56;5165526;28;20025;-72
2024/02/21 08:09:23;;;;;;;17.73;6.20;;;;;;;10.17;93.86;100851.94;5168083;28;20034;-73
2024/02/21 08:11:54;;;;;;;14.80;5.75;;;;;;;10.28;93.32;100850.72;5181372;28;20402;-73
2024/02/21 08:14:25;;;;;;;10.93;5.57;;;;;;;10.36;93.03;100853.09;5164579;28;20133;-73
2024/02/21 08:16:55;;;;;;;13.75;5.03;;;;;;;10.40;92.97;100852.97;5182293;28;20154;-73
2024/02/21 08:19:26;;;;;;;14.35;5.40;;;;;;;10.33;92.46;100847.97;5168053;28;20589;-73
2024/02/21 08:21:56;;;;;;;15.65;5.75;;;;;;;10.34;92.63;100854.91;5166063;28;20033;-73
2024/02/21 08:24:26;;;;;;;16.40;5.80;;;;;;;10.44;91.94;100849.34;5162670;28;20108;-73
2024/02/21 08:26:57;;;;;;;16.30;4.95;;;;;;;10.51;92.83;100848.25;5171367;28;20033;-73
2024/02/21 08:29:27;;;;;;;16.83;5.72;;;;;;;10.41;92.32;100846.84;5166281;28;20450;-73
2024/02/21 08:31:57;;;;;;;17.48;5.80;;;;;;;10.51;91.75;100845.63;5170392;28;20030;-73
2024/02/21 08:34:30;;;;;;;18.58;5.93;;;;;;;10.51;91.61;100853.47;5165036;28;20057;-73
2024/02/21 08:37:00;;;;;;;12.02;5.03;;;;;;;10.58;92.03;100854.16;5163505;28;20133;-73
2024/02/21 08:39:31;;;;;;;16.65;6.10;;;;;;;10.54;92.32;100852.53;5161715;28;20101;-73
2024/02/21 08:42:01;;;;;;;17.88;6.38;;;;;;;10.49;92.00;100844.00;5168842;28;20037;-73
2024/02/21 08:44:31;;;;;;;15.25;6.15;;;;;;;10.61;90.47;100847.06;5183505;28;20033;-73
2024/02/21 08:47:03;;;;;;;13.90;5.90;;;;;;;10.67;90.34;100841.66;5163545;28;20432;-73
2024/02/21 08:49:33;;;;;;;14.82;6.10;;;;;;;10.60;90.58;100847.97;5165636;28;20026;-73
2024/02/21 08:52:05;;;;;;;13.85;6.50;;;;;;;10.66;90.72;100836.47;5163840;28;20041;-72
2024/02/21 08:54:35;;;;;;;21.88;7.32;;;;;;;10.67;90.51;100832.97;5164197;28;20058;-73
2024/02/21 08:57:05;;;;;;;16.58;5.78;;;;;;;10.79;90.56;100837.78;5167199;28;20111;-73
2024/02/21 08:59:36;;;;;;;11.98;5.47;;;;;;;10.72;89.86;100831.06;5164281;28;20439;-73
2024/02/21 09:02:07;;;;;;;17.38;6.22;;;;;;;10.75;89.64;100830.94;5168794;28;20116;-73
2024/02/21 09:04:37;;;;;;;13.80;5.28;;;;;;;10.63;89.82;100826.97;5167549;28;20049;-73
2024/02/21 09:07:07;;;;;;;14.70;5.78;;;;;;;10.79;89.79;100830.81;5160869;28;20022;-73
2024/02/21 09:09:41;;;;;;;14.50;5.50;;;;;;;10.77;89.11;100829.13;5164599;28;20030;-73
2024/02/21 09:12:11;;;;;;;12.30;4.70;;;;;;;10.91;90.38;100826.94;5163519;28;20033;-73
2024/02/21 09:14:41;;;;;;;12.68;4.95;;;;;;;10.90;89.42;100823.47;5162555;28;20531;-73
2024/02/21 09:17:12;;;;;;;12.30;5.90;;;;;;;10.87;88.88;100822.72;5162849;28;20037;-73
2024/02/21 09:19:43;;;;;;;15.35;4.93;;;;;;;10.92;89.00;100816.44;5164902;28;20439;-72
2024/02/21 09:22:14;;;;;;;13.23;4.40;;;;;;;11.03;88.12;100814.28;5165634;28;20475;-73
2024/02/21 09:24:45;;;;;;;13.57;4.63;;;;;;;11.05;88.16;100810.72;5166272;28;20036;-73
2024/02/21 09:27:15;;;;;;;11.93;4.38;;;;;;;11.22;88.27;100803.16;5162255;28;20076;-73
2024/02/21 09:29:45;;;;;;;13.88;4.90;;;;;;;11.41;87.19;100804.22;5167791;28;20172;-72
2024/02/21 09:32:16;;;;;;;12.20;4.47;;;;;;;11.42;86.52;100800.69;5165699;28;20233;-73
2024/02/21 09:34:46;;;;;;;10.18;3.97;;;;;;;11.43;86.04;100809.44;5162287;28;20026;-73
2024/02/21 09:37:16;;;;;;;9.73;3.92;;;;;;;11.52;86.07;100807.34;5161514;28;20301;-73
2024/02/21 09:39:47;;;;;;;10.32;3.38;;;;;;;11.53;85.72;100806.41;5165222;28;20053;-73
2024/02/21 09:42:21;;;;;;;10.07;3.60;;;;;;;11.48;85.25;100812.72;5166038;28;20490;-73
2024/02/21 09:44:53;;;;;;;10.65;3.20;;;;;;;11.60;84.19;100805.31;5162103;28;20018;-73
2024/02/21 09:47:33;;;;;;;9.27;3.40;;;;;;;11.86;83.51;100804.38;5166161;28;20044;-73
2024/02/21 09:50:04;;;;;;;9.45;3.08;;;;;;;11.77;82.53;100805.56;5163421;28;20534;-73
2024/02/21 09:52:36;;;;;;;5.95;2.70;;;;;;;11.97;81.95;100799.59;5176022;28;20566;-73
2024/02/21 09:55:10;;;;;;;8.63;2.78;;;;;;;12.12;80.98;100805.09;5161946;28;20097;-73
2024/02/21 09:57:41;;;;;;;9.32;3.25;;;;;;;12.03;80.93;100802.84;5163034;28;20057;-73
2024/02/21 10:00:12;;;;;;;11.82;3.10;;;;;;;12.07;80.30;100798.31;5162313;28;20518;-73
2024/02/21 10:02:43;;;;;;;6.10;2.80;;;;;;;12.11;80.20;100799.94;5161295;28;20357;-73
2024/02/21 10:05:13;;;;;;;8.38;3.13;;;;;;;12.26;79.72;100786.25;5246287;23;20044;-76
2024/02/21 10:07:43;;;;;;;10.43;3.38;;;;;;;12.19;78.23;100788.25;5223465;28;20091;-75
2024/02/21 10:10:16;;;;;;;9.23;2.63;;;;;;;12.25;79.47;100795.84;5225343;28;20082;-75
2024/02/21 10:12:50;;;;;;;9.50;3.05;;;;;;;12.43;77.34;100794.28;5227027;28;20083;-76
2024/02/21 10:15:22;;;;;;;10.48;3.13;;;;;;;12.50;76.75;100790.50;5228498;28;20029;-76
2024/02/21 10:18:00;;;;;;;10.05;2.90;;;;;;;12.75;77.31;100789.44;5189916;28;20112;-76
2024/02/21 10:20:31;;;;;;;10.52;2.85;;;;;;;12.45;76.58;100790.69;5223838;28;20032;-76
2024/02/21 10:23:10;;;;;;;9.82;3.38;;;;;;;12.45;76.81;100795.91;5229222;28;20106;-76
2024/02/21 10:25:45;;;;;;;10.88;3.25;;;;;;;12.28;77.51;100794.88;5208892;28;20037;-76
2024/02/21 10:28:17;;;;;;;10.60;3.38;;;;;;;11.89;78.48;100791.16;5227383;28;20024;-76
2024/02/21 10:30:51;;;;;;;11.05;3.08;;;;;;;11.73;79.13;100790.88;5222401;28;20039;-76
2024/02/21 10:33:24;;;;;;;7.80;3.10;;;;;;;11.81;78.54;100780.97;5222702;28;20029;-76
2024/02/21 10:35:54;;;;;;;12.65;2.97;;;;;;;11.84;78.91;100783.50;5226692;28;20035;-75
2024/02/21 10:38:24;;;;;;;9.05;3.10;;;;;;;11.96;78.56;100787.41;5202801;28;20024;-76
2024/02/21 10:40:58;;;;;;;13.30;2.60;;;;;;;11.80;78.48;100779.25;5228937;28;20493;-76
2024/02/21 10:43:36;;;;;;;6.97;2.70;;;;;;;11.92;78.77;100770.94;5228557;28;20510;-76
2024/02/21 10:46:08;;;;;;;12.02;3.28;;;;;;;11.92;78.34;100776.19;5221121;28;20114;-75
2024/02/21 10:48:44;;;;;;;8.43;3.42;;;;;;;11.93;77.71;100777.88;5208304;28;20020;-76
2024/02/21 10:51:19;;;;;;;7.82;2.60;;;;;;;11.92;77.73;100775.34;5207320;28;20021;-75
2024/02/21 10:53:52;;;;;;;;;;;;;;;11.83;78.63;100759.97;5222943;28;20060;-75
2024/02/21 10:56:37;;;;;;;9.70;2.60;;;;;;;11.83;78.01;100759.97;5223125;28;20327;-76
2024/02/21 10:59:07;;;;;;;8.80;3.03;;;;;;;11.87;77.91;100744.09;5225011;28;20052;-75
2024/02/21 11:01:38;;;;;;;10.75;4.05;;;;;;;11.97;78.00;100748.03;5206818;28;20048;-76
2024/02/21 11:04:11;;;;;;;5.07;2.22;;;;;;;12.00;77.23;100733.97;5229481;28;20029;-75
2024/02/21 11:06:42;;;;;;;9.90;2.42;;;;;;;12.32;76.72;100731.78;5224575;28;20109;-76
2024/02/21 11:09:12;;;;;;;6.15;2.72;;;;;;;12.04;75.34;100728.56;5213995;28;20667;-76
2024/02/21 11:11:44;;;;;;;13.00;2.70;;;;;;;11.84;75.96;100727.63;5226055;28;20069;-75
2024/02/21 11:14:21;;;;;;;10.07;2.45;;;;;;;11.96;75.64;100722.75;5225186;28;20461;-76
2024/02/21 11:16:51;;;;;;;8.07;2.38;;;;;;;11.91;75.99;100706.38;5228499;28;20504;-75
2024/02/21 11:19:24;;;;;;;7.10;2.40;;;;;;;11.92;75.14;100702.84;5227805;28;20037;-75
2024/02/21 11:21:58;;;;;;;9.38;2.55;;;;;;;12.12;74.25;100689.81;5225076;28;20211;-75
2024/02/21 11:24:33;;;;;;;8.10;2.08;;;;;;;12.18;75.39;100691.34;5225133;28;20036;-76
2024/02/21 11:27:12;;;;;;;5.50;2.22;;;;;;;12.29;75.77;100681.28;5221624;28;20032;-75
2024/02/21 11:29:54;;;;;;;7.28;2.30;;;;;;;12.36;75.54;100683.59;5220246;28;20136;-75
2024/02/21 11:32:26;;;;;;;8.30;2.72;;;;;;;12.44;74.33;100670.19;5201854;28;20335;-76
2024/02/21 11:35:04;;;;;;;7.22;2.38;;;;;;;12.44;75.38;100660.53;5227164;28;20241;-76
2024/02/21 11:37:38;;;;;;;10.38;2.30;;;;;;;12.68;74.27;100653.41;5212285;28;20092;-75
2024/02/21 11:40:09;;;;;;;7.45;2.50;;;;;;;12.72;74.08;100647.97;5224180;28;20090;-76
2024/02/21 11:42:40;;;;;;;5.60;2.08;;;;;;;12.85;73.48;100628.13;5228950;28;20043;-76